Montrose, United Kingdom
Current Conditions -  °F | °C
As of 11:50 AM on Thursday 27 Nov 2014 (Local Time) from EGQL Reporting Station
Haze Haze  
Wind Chill: 46°   Ceiling: 2500
Heat Index: 46°   Visibility: 6mi
Dew Point: 46°   Wind: 2mph
Humidity: 100%   Direction: 360°N
Pressure: 29.62"   Gusts: NA
Location:  56.7°N, 2.45°W
Report Text: EGQL 271150Z 36002KT 9999 7000N BR FEW004 SCT010 OVC025 08/08 Q1003 GRN
Loading
Personal Weather Stations






























Interactive Weather Map New forecast layout! Learn more

10-Day Weather Forecast

Advertisements
Track Severe Weather on mobile